Time;durP1;ratioP1;P1;durP2;ratioP2;P2;SDS_P1;SDS_P2;PMS_P1;PMS_P2;Temp;Humidity;BMP_temperature;BMP_pressure;BME280_temperature;BME280_humidity;BME280_pressure;Samples;Min_cycle;Max_cycle;Signal;HPM_P1;HPM_P2
2023/07/03 08:31:30;;;;;;;4.22;1.73;;;21.30;99.90;;;;;;3774930;23;20238;-74
2023/07/03 08:33:57;;;;;;;4.55;1.50;;;21.00;99.90;;;;;;4964131;28;20710;-73
2023/07/03 08:36:24;;;;;;;5.20;1.75;;;20.70;99.90;;;;;;4956800;28;20204;-75
2023/07/03 08:38:50;;;;;;;8.63;2.00;;;20.40;99.90;;;;;;4947634;28;20255;-76
2023/07/03 08:41:18;;;;;;;5.82;1.73;;;20.30;99.90;;;;;;4932104;29;20208;-74
2023/07/03 08:43:48;;;;;;;5.47;1.95;;;19.90;99.90;;;;;;4935917;29;20236;-69
2023/07/03 08:46:19;;;;;;;4.45;1.75;;;20.10;99.90;;;;;;4937114;29;20656;-70
2023/07/03 08:48:49;;;;;;;5.07;1.90;;;20.10;99.90;;;;;;4936533;29;20233;-69
2023/07/03 08:51:18;;;;;;;4.65;1.33;;;20.70;99.90;;;;;;4937097;29;20219;-70
2023/07/03 08:53:52;;;;;;;5.05;1.70;;;21.10;99.90;;;;;;4937289;29;20205;-69
2023/07/03 08:56:21;;;;;;;7.30;1.70;;;21.30;99.90;;;;;;4937190;29;20211;-73
2023/07/03 08:58:51;;;;;;;5.93;2.08;;;21.30;99.90;;;;;;4937174;29;20228;-69
2023/07/03 09:01:25;;;;;;;5.65;1.73;;;21.20;99.90;;;;;;4937231;29;20652;-69
2023/07/03 09:04:07;;;;;;;6.72;1.60;;;21.10;99.90;;;;;;4936692;29;20232;-68
2023/07/03 09:06:41;;;;;;;5.60;1.30;;;21.10;99.90;;;;;;4936668;29;20209;-72
2023/07/03 09:09:17;;;;;;;4.70;1.40;;;21.20;99.90;;;;;;4937029;29;20281;-73
2023/07/03 09:11:51;;;;;;;5.70;1.70;;;21.70;99.90;;;;;;4937097;29;20224;-72
2023/07/03 09:14:25;;;;;;;6.05;1.63;;;22.00;99.90;;;;;;4937082;29;20244;-72
2023/07/03 09:16:52;;;;;;;4.65;1.83;;;22.60;99.90;;;;;;4936706;29;20218;-70
2023/07/03 09:19:25;;;;;;;5.45;1.60;;;22.90;99.90;;;;;;4936212;29;20231;-71
2023/07/03 09:21:55;;;;;;;4.47;1.50;;;22.50;99.90;;;;;;4936592;29;20223;-70
2023/07/03 09:24:25;;;;;;;5.57;1.90;;;22.50;99.90;;;;;;4936782;29;20232;-72
2023/07/03 09:27:08;;;;;;;4.70;1.75;;;22.20;99.90;;;;;;4936525;29;20215;-72
2023/07/03 09:29:37;;;;;;;5.28;1.45;;;22.30;99.90;;;;;;4926167;29;20221;-70
2023/07/03 09:32:05;;;;;;;5.97;1.60;;;22.20;99.90;;;;;;4936452;29;20209;-70
2023/07/03 09:35:02;;;;;;;6.05;1.60;;;22.80;99.90;;;;;;4936639;29;20222;-70
2023/07/03 09:37:29;;;;;;;4.50;1.33;;;23.70;99.80;;;;;;4936343;29;20209;-69
2023/07/03 09:39:56;;;;;;;5.07;1.50;;;24.00;98.40;;;;;;4936216;29;20276;-74
2023/07/03 09:42:25;;;;;;;6.07;2.33;;;24.00;99.30;;;;;;4937726;29;20207;-75
2023/07/03 09:44:52;;;;;;;5.30;2.17;;;24.30;98.00;;;;;;4939824;29;20220;-77
2023/07/03 09:47:22;;;;;;;6.40;1.75;;;24.30;97.40;;;;;;4939943;29;20203;-74
2023/07/03 09:49:50;;;;;;;4.57;1.52;;;24.30;96.40;;;;;;4940573;29;20229;-74
2023/07/03 09:52:18;;;;;;;5.60;1.17;;;24.10;97.70;;;;;;4937067;29;20684;-74
2023/07/03 09:54:47;;;;;;;8.13;1.27;;;23.80;96.60;;;;;;4937045;29;20209;-76
2023/07/03 09:57:23;;;;;;;5.60;2.00;;;23.50;97.00;;;;;;4936908;29;20239;-74
2023/07/03 09:59:51;;;;;;;5.47;1.38;;;22.90;97.10;;;;;;4936038;29;20636;-74
2023/07/03 10:02:22;;;;;;;3.13;0.90;;;22.40;97.90;;;;;;4935924;29;20719;-74
2023/07/03 10:04:49;;;;;;;5.18;1.13;;;22.00;98.30;;;;;;4935678;29;20240;-74
2023/07/03 10:07:18;;;;;;;6.03;1.48;;;21.60;97.80;;;;;;4936282;29;20209;-69
2023/07/03 10:09:46;;;;;;;4.05;1.40;;;21.40;98.00;;;;;;4936088;29;20231;-72
2023/07/03 10:12:22;;;;;;;6.28;1.23;;;21.30;98.20;;;;;;4935935;29;20208;-70
2023/07/03 10:14:53;;;;;;;3.58;1.20;;;21.30;98.30;;;;;;4935732;29;20683;-74
2023/07/03 10:17:26;;;;;;;5.90;1.00;;;21.40;98.90;;;;;;4935691;29;20200;-74
2023/07/03 10:19:58;;;;;;;6.50;1.00;;;21.30;98.20;;;;;;4935535;29;20579;-71
2023/07/03 10:22:26;;;;;;;4.78;1.20;;;21.20;97.30;;;;;;4935741;29;20201;-76
2023/07/03 10:25:00;;;;;;;3.33;1.58;;;21.30;97.50;;;;;;4935978;29;20229;-74
2023/07/03 10:27:29;;;;;;;2.80;1.20;;;21.60;98.20;;;;;;4935691;29;20208;-75
2023/07/03 10:29:57;;;;;;;2.58;1.10;;;21.80;97.60;;;;;;4935456;29;20229;-74
2023/07/03 10:32:28;;;;;;;4.25;1.30;;;22.00;97.80;;;;;;4935309;29;20220;-74
2023/07/03 10:35:02;;;;;;;5.75;1.33;;;22.20;97.40;;;;;;4935564;29;20212;-75
2023/07/03 10:37:39;;;;;;;3.47;1.08;;;22.50;96.70;;;;;;4941894;29;20197;-73
2023/07/03 10:40:18;;;;;;;4.13;1.05;;;22.90;97.20;;;;;;4935550;29;20296;-74
2023/07/03 10:42:51;;;;;;;3.80;1.05;;;22.80;95.80;;;;;;4935847;29;20563;-74
2023/07/03 10:45:18;;;;;;;4.30;1.25;;;22.60;96.30;;;;;;4936042;29;20211;-74
2023/07/03 10:47:51;;;;;;;5.50;0.80;;;22.90;96.20;;;;;;4935352;29;20201;-73
2023/07/03 10:50:19;;;;;;;4.75;1.10;;;23.10;96.20;;;;;;4935522;29;20213;-76
2023/07/03 10:52:58;;;;;;;4.25;1.23;;;23.50;96.30;;;;;;4935293;29;20207;-72
2023/07/03 10:55:31;;;;;;;5.57;1.13;;;23.50;96.20;;;;;;4935704;29;20212;-75
2023/07/03 10:58:03;;;;;;;4.57;1.10;;;23.50;96.20;;;;;;4935175;29;20205;-75
2023/07/03 11:00:38;;;;;;;4.72;1.27;;;23.60;95.90;;;;;;4935354;29;20213;-75
2023/07/03 11:03:13;;;;;;;3.85;1.10;;;23.50;96.10;;;;;;4935117;29;20204;-75
2023/07/03 11:05:45;;;;;;;4.40;1.02;;;23.20;95.60;;;;;;4935688;29;20219;-76
2023/07/03 11:08:19;;;;;;;4.28;0.93;;;23.00;96.00;;;;;;4935318;29;20221;-72
2023/07/03 11:10:53;;;;;;;4.32;1.20;;;22.30;95.70;;;;;;4935202;29;20216;-73
2023/07/03 11:13:27;;;;;;;3.97;1.27;;;21.90;96.60;;;;;;4935202;29;20215;-78
2023/07/03 11:16:01;;;;;;;5.57;1.13;;;21.70;96.50;;;;;;4935400;29;20212;-75
2023/07/03 11:18:42;;;;;;;3.72;1.17;;;21.50;96.60;;;;;;4934699;29;20232;-75
2023/07/03 11:21:17;;;;;;;6.32;1.10;;;21.50;97.80;;;;;;4916307;29;20296;-77
2023/07/03 11:23:52;;;;;;;10.40;1.33;;;21.70;97.20;;;;;;4926767;29;20236;-73
2023/07/03 11:26:28;;;;;;;6.75;1.27;;;21.80;97.00;;;;;;4935350;29;20205;-75
2023/07/03 11:28:56;;;;;;;5.63;1.15;;;22.00;96.90;;;;;;4934940;29;20228;-75
2023/07/03 11:31:24;;;;;;;3.83;1.10;;;22.40;97.60;;;;;;4937965;29;20223;-74
2023/07/03 11:33:52;;;;;;;3.17;1.13;;;22.60;97.00;;;;;;4938617;29;20209;-72
2023/07/03 11:36:40;;;;;;;2.53;0.90;;;22.90;96.70;;;;;;4938856;29;20213;-73
2023/07/03 11:39:20;;;;;;;5.53;0.93;;;23.20;96.00;;;;;;4938649;29;20221;-74
2023/07/03 11:41:51;;;;;;;5.78;1.02;;;23.30;95.40;;;;;;4938596;29;20204;-73
2023/07/03 11:44:20;;;;;;;6.47;1.23;;;23.40;95.00;;;;;;4937983;29;20243;-73
2023/07/03 11:46:54;;;;;;;8.20;1.40;;;23.40;95.10;;;;;;4938055;29;20219;-73
2023/07/03 11:49:26;;;;;;;2.63;0.95;;;23.30;95.40;;;;;;4938030;29;20307;-74
2023/07/03 11:52:00;;;;;;;4.10;1.00;;;23.30;95.20;;;;;;4938073;29;20684;-77
2023/07/03 11:54:30;;;;;;;2.58;0.70;;;23.10;94.60;;;;;;4938105;29;20668;-75
2023/07/03 11:57:01;;;;;;;7.10;1.00;;;23.00;94.90;;;;;;4938130;29;20211;-76
2023/07/03 11:59:39;;;;;;;4.18;1.00;;;23.00;94.90;;;;;;4937821;29;20245;-74
2023/07/03 12:02:43;;;;;;;3.05;0.90;;;23.00;95.20;;;;;;4937934;29;20692;-74
2023/07/03 12:05:10;;;;;;;6.13;1.00;;;23.00;95.20;;;;;;4937739;29;20232;-78
2023/07/03 12:07:49;;;;;;;3.00;1.15;;;23.00;95.00;;;;;;4937746;29;20219;-75
2023/07/03 12:10:46;;;;;;;3.17;0.70;;;22.90;94.90;;;;;;4936888;29;20244;-77
2023/07/03 12:13:51;;;;;;;6.15;0.82;;;22.90;94.80;;;;;;4937951;29;20212;-77
2023/07/03 12:16:21;;;;;;;3.78;1.08;;;22.90;95.20;;;;;;4878024;29;20207;-77
2023/07/03 12:19:00;;;;;;;6.13;0.95;;;23.10;95.20;;;;;;4927828;29;20232;-75
2023/07/03 12:21:39;;;;;;;3.05;0.80;;;22.90;95.00;;;;;;4936090;29;20677;-76
2023/07/03 12:24:22;;;;;;;2.75;1.15;;;22.80;94.90;;;;;;4937803;29;20236;-75
2023/07/03 12:26:57;;;;;;;4.38;1.02;;;22.60;94.90;;;;;;4938148;29;20212;-75
2023/07/03 12:29:23;;;;;;;3.08;1.42;;;22.90;95.40;;;;;;4937792;29;20287;-77
2023/07/03 12:31:58;;;;;;;3.88;1.40;;;23.30;95.10;;;;;;4937837;29;20223;-75
2023/07/03 12:34:26;;;;;;;2.05;0.98;;;23.50;94.80;;;;;;4937870;29;20240;-77
2023/07/03 12:36:59;;;;;;;3.05;0.85;;;23.70;95.00;;;;;;4937738;29;20248;-76
2023/07/03 12:39:26;;;;;;;4.97;0.90;;;23.40;94.30;;;;;;4937869;29;20232;-82
2023/07/03 12:41:54;;;;;;;4.72;1.30;;;23.20;94.70;;;;;;4931582;29;20209;-73
2023/07/03 12:44:23;;;;;;;3.03;1.10;;;23.10;95.20;;;;;;4936533;29;20337;-76
2023/07/03 12:46:52;;;;;;;5.75;1.35;;;23.00;94.30;;;;;;4936407;29;20240;-76
2023/07/03 12:49:20;;;;;;;2.65;0.93;;;22.90;94.60;;;;;;4936233;29;20225;-73
2023/07/03 12:51:51;;;;;;;5.07;1.55;;;22.80;95.00;;;;;;4935891;29;20271;-70
2023/07/03 12:54:18;;;;;;;5.80;1.20;;;22.80;95.00;;;;;;4935852;29;20222;-70
2023/07/03 12:56:46;;;;;;;6.00;1.27;;;22.90;95.90;;;;;;4936377;29;20209;-70
2023/07/03 12:59:17;;;;;;;7.22;1.13;;;23.10;95.40;;;;;;4936346;29;20251;-69
2023/07/03 13:01:49;;;;;;;2.67;0.93;;;23.20;95.80;;;;;;4936619;29;20268;-72
2023/07/03 13:04:26;;;;;;;6.53;1.33;;;23.30;95.80;;;;;;4936080;29;20270;-70
2023/07/03 13:06:53;;;;;;;3.45;1.13;;;23.20;94.90;;;;;;4936157;29;20208;-71
2023/07/03 13:09:20;;;;;;;5.97;1.63;;;23.30;95.20;;;;;;4936051;29;20229;-72
2023/07/03 13:11:47;;;;;;;6.90;1.25;;;23.50;95.50;;;;;;4935812;29;20213;-70
2023/07/03 13:14:19;;;;;;;4.68;1.52;;;23.20;95.10;;;;;;4935839;29;20307;-71
2023/07/03 13:16:49;;;;;;;4.57;1.10;;;23.20;96.00;;;;;;4935838;29;20220;-70
2023/07/03 13:19:27;;;;;;;2.13;0.88;;;22.90;95.50;;;;;;4935772;29;20229;-76
2023/07/03 13:21:55;;;;;;;5.20;1.08;;;22.90;95.60;;;;;;4935563;29;20295;-69
2023/07/03 13:24:23;;;;;;;4.97;1.20;;;23.10;95.70;;;;;;4935172;29;20723;-71
2023/07/03 13:26:51;;;;;;;4.43;1.05;;;23.20;95.00;;;;;;4935526;29;20211;-69
2023/07/03 13:29:25;;;;;;;3.78;1.25;;;23.20;94.90;;;;;;4934283;29;20216;-71
2023/07/03 13:31:52;;;;;;;4.82;1.27;;;23.10;95.00;;;;;;4930267;29;20224;-73
2023/07/03 13:34:21;;;;;;;5.50;1.20;;;22.90;95.20;;;;;;4932052;29;20299;-69
2023/07/03 13:37:00;;;;;;;6.80;1.25;;;22.80;94.50;;;;;;4931383;29;20209;-69
2023/07/03 13:39:32;;;;;;;6.18;1.60;;;22.70;95.20;;;;;;4934292;29;20232;-68
2023/07/03 13:41:59;;;;;;;6.82;1.73;;;22.70;95.40;;;;;;4933070;29;20213;-76
2023/07/03 13:44:27;;;;;;;3.85;1.20;;;23.00;95.60;;;;;;4935054;29;20236;-69
2023/07/03 13:46:55;;;;;;;6.60;1.63;;;23.30;95.70;;;;;;4935077;29;20640;-73
2023/07/03 13:49:22;;;;;;;4.45;1.25;;;23.30;95.60;;;;;;4934770;29;20626;-77
2023/07/03 13:51:50;;;;;;;7.82;1.85;;;23.40;96.50;;;;;;4934510;29;20686;-68
2023/07/03 13:54:17;;;;;;;5.45;1.50;;;23.50;95.30;;;;;;4933837;29;20212;-67
2023/07/03 13:56:45;;;;;;;4.45;1.60;;;23.60;95.90;;;;;;4934919;29;20213;-68
2023/07/03 13:59:12;;;;;;;6.57;2.20;;;23.70;95.60;;;;;;4935197;29;20225;-69
2023/07/03 14:01:42;;;;;;;8.13;2.67;;;23.50;95.50;;;;;;4933359;29;20657;-68
2023/07/03 14:04:09;;;;;;;6.72;2.30;;;23.50;95.90;;;;;;4933781;29;20236;-69
2023/07/03 14:06:36;;;;;;;7.38;2.47;;;23.00;95.20;;;;;;4931460;29;20207;-68
2023/07/03 14:09:03;;;;;;;6.72;2.05;;;23.00;95.70;;;;;;4934774;29;20228;-69
2023/07/03 14:11:30;;;;;;;3.90;1.90;;;23.20;95.70;;;;;;4934564;29;20220;-69
2023/07/03 14:13:57;;;;;;;6.53;1.80;;;22.90;95.90;;;;;;4934337;29;20215;-69
2023/07/03 14:16:25;;;;;;;5.75;1.95;;;22.90;96.80;;;;;;4930892;29;20594;-68
2023/07/03 14:18:53;;;;;;;6.75;1.92;;;23.20;96.20;;;;;;4934090;29;20272;-68
2023/07/03 14:21:22;;;;;;;3.55;1.73;;;23.30;95.30;;;;;;4933674;29;20219;-68
2023/07/03 14:23:49;;;;;;;6.68;1.80;;;23.20;95.90;;;;;;4934253;29;20296;-69
2023/07/03 14:26:16;;;;;;;5.47;2.03;;;23.30;95.60;;;;;;4934099;29;20233;-68
2023/07/03 14:28:45;;;;;;;5.10;1.73;;;23.00;95.60;;;;;;4934117;29;20247;-69
2023/07/03 14:31:13;;;;;;;3.65;1.45;;;23.00;95.60;;;;;;4948620;23;20235;-76
2023/07/03 14:33:41;;;;;;;6.00;1.30;;;23.20;96.00;;;;;;4952755;28;20216;-74
2023/07/03 14:36:10;;;;;;;4.10;1.70;;;23.00;96.30;;;;;;4953202;28;20216;-74
2023/07/03 14:38:37;;;;;;;6.25;1.70;;;22.90;96.60;;;;;;4946255;28;20228;-73
2023/07/03 14:41:04;;;;;;;5.88;1.80;;;22.90;96.70;;;;;;4933885;29;20209;-73
2023/07/03 14:43:31;;;;;;;5.75;1.17;;;23.00;96.40;;;;;;4931137;29;20291;-73
2023/07/03 14:45:58;;;;;;;4.90;1.15;;;23.00;96.40;;;;;;4924412;29;20228;-74
2023/07/03 14:48:25;;;;;;;5.25;1.40;;;23.00;96.40;;;;;;4935225;29;20319;-75
2023/07/03 14:50:52;;;;;;;5.38;1.50;;;22.80;95.60;;;;;;4929852;29;20215;-74
2023/07/03 14:53:20;;;;;;;4.78;1.20;;;22.60;96.50;;;;;;4928324;29;20235;-74
2023/07/03 14:55:53;;;;;;;5.63;1.42;;;22.60;96.00;;;;;;4924573;29;20661;-71
2023/07/03 14:58:19;;;;;;;4.55;1.42;;;22.50;95.00;;;;;;4925901;29;20216;-76
2023/07/03 15:00:46;;;;;;;4.90;1.20;;;22.50;94.80;;;;;;4932587;29;20220;-74
2023/07/03 15:03:13;;;;;;;5.63;1.30;;;22.50;95.00;;;;;;4935262;29;20223;-73
2023/07/03 15:05:40;;;;;;;8.23;1.27;;;22.40;94.70;;;;;;4936923;29;20232;-73
2023/07/03 15:08:07;;;;;;;6.15;1.45;;;22.30;94.80;;;;;;4938934;29;21097;-75
2023/07/03 15:10:36;;;;;;;2.83;1.30;;;22.50;95.90;;;;;;4938850;29;20217;-73
2023/07/03 15:13:05;;;;;;;4.30;1.20;;;22.70;95.20;;;;;;4938837;29;20667;-73
2023/07/03 15:15:31;;;;;;;5.68;1.25;;;22.60;94.90;;;;;;4940585;29;20215;-73
2023/07/03 15:17:58;;;;;;;3.05;1.00;;;22.60;94.70;;;;;;4940694;29;20587;-73
2023/07/03 15:20:25;;;;;;;3.65;1.27;;;22.70;95.20;;;;;;4938814;29;20215;-73
2023/07/03 15:22:52;;;;;;;7.32;1.63;;;22.50;94.30;;;;;;4939078;29;20234;-73
2023/07/03 15:25:19;;;;;;;3.92;1.15;;;22.60;94.90;;;;;;4938931;29;20236;-73
2023/07/03 15:27:47;;;;;;;3.88;1.00;;;22.70;94.70;;;;;;4938683;29;20213;-72
2023/07/03 15:30:14;;;;;;;6.32;1.17;;;22.90;94.80;;;;;;4938991;29;20284;-73
2023/07/03 15:32:41;;;;;;;2.42;1.02;;;23.00;94.90;;;;;;4938744;29;20690;-73
2023/07/03 15:35:08;;;;;;;4.85;1.83;;;23.10;95.00;;;;;;4939042;29;20215;-73
2023/07/03 15:37:35;;;;;;;3.30;1.15;;;22.90;94.80;;;;;;4938703;29;20676;-73
2023/07/03 15:40:03;;;;;;;3.35;1.17;;;22.70;94.90;;;;;;4938898;29;20228;-73
2023/07/03 15:42:30;;;;;;;5.32;1.33;;;22.80;94.40;;;;;;4938785;29;20215;-73
2023/07/03 15:44:59;;;;;;;3.92;1.20;;;22.80;94.50;;;;;;4938722;29;20343;-73
2023/07/03 15:47:26;;;;;;;4.28;1.27;;;22.90;94.30;;;;;;4938580;29;20710;-73
2023/07/03 15:49:55;;;;;;;4.18;1.15;;;22.90;94.50;;;;;;4938721;29;20229;-73
2023/07/03 15:52:22;;;;;;;6.03;1.23;;;22.90;94.30;;;;;;4938640;29;20209;-72
2023/07/03 15:54:50;;;;;;;4.97;1.05;;;23.00;95.00;;;;;;4938397;29;20656;-72
2023/07/03 15:57:17;;;;;;;4.10;1.30;;;23.00;95.70;;;;;;4938494;29;20259;-73
2023/07/03 15:59:44;;;;;;;3.33;1.13;;;22.90;95.20;;;;;;4938414;29;20326;-73
2023/07/03 16:02:12;;;;;;;3.08;1.20;;;22.90;94.70;;;;;;4938125;29;20599;-72
2023/07/03 16:04:39;;;;;;;5.47;1.33;;;22.80;94.20;;;;;;4938110;29;20219;-72
2023/07/03 16:07:06;;;;;;;4.10;1.30;;;22.70;94.40;;;;;;4938335;29;20212;-73
2023/07/03 16:09:32;;;;;;;4.18;0.90;;;22.40;94.40;;;;;;4938398;29;20695;-73
2023/07/03 16:11:59;;;;;;;3.78;1.05;;;22.30;94.30;;;;;;4938553;29;20219;-73
2023/07/03 16:14:27;;;;;;;4.45;1.30;;;22.20;94.30;;;;;;4938063;29;20218;-73
2023/07/03 16:16:54;;;;;;;4.70;1.00;;;22.30;94.80;;;;;;4936959;29;20217;-73
2023/07/03 16:19:22;;;;;;;3.10;1.00;;;22.30;94.90;;;;;;4938058;29;20561;-73
2023/07/03 16:21:49;;;;;;;5.00;1.10;;;22.20;94.60;;;;;;4937894;29;20735;-73
2023/07/03 16:24:16;;;;;;;4.10;1.15;;;22.00;94.70;;;;;;4937945;29;20205;-73
2023/07/03 16:26:43;;;;;;;5.47;1.42;;;22.00;95.10;;;;;;4937924;29;20610;-73
2023/07/03 16:29:10;;;;;;;3.20;1.00;;;22.00;94.60;;;;;;4937897;29;20232;-73
2023/07/03 16:31:38;;;;;;;2.90;0.90;;;22.20;94.30;;;;;;4937813;29;20217;-73
2023/07/03 16:34:05;;;;;;;2.50;0.90;;;22.30;94.20;;;;;;4937614;29;20221;-73
2023/07/03 16:36:33;;;;;;;2.72;0.90;;;22.30;94.40;;;;;;4937622;29;20300;-73
2023/07/03 16:39:02;;;;;;;3.53;0.70;;;22.20;94.40;;;;;;4937796;29;20225;-74
2023/07/03 16:41:33;;;;;;;5.22;0.95;;;22.10;94.80;;;;;;4933675;29;20598;-74
2023/07/03 16:44:00;;;;;;;2.97;0.90;;;22.10;94.60;;;;;;4936320;29;20208;-74
2023/07/03 16:46:28;;;;;;;2.40;0.73;;;22.00;94.70;;;;;;4937246;29;20232;-74
2023/07/03 16:48:56;;;;;;;6.43;1.20;;;21.80;95.10;;;;;;4937121;29;20584;-75
2023/07/03 16:51:24;;;;;;;4.43;1.20;;;21.80;95.00;;;;;;4937290;29;20212;-73
2023/07/03 16:53:52;;;;;;;2.55;1.08;;;21.70;95.40;;;;;;4937109;29;20215;-74
2023/07/03 16:56:20;;;;;;;2.75;0.82;;;21.70;95.90;;;;;;4936663;29;20895;-75
2023/07/03 16:58:49;;;;;;;4.80;1.30;;;21.70;95.90;;;;;;4928159;29;20224;-73
2023/07/03 17:01:19;;;;;;;4.38;1.30;;;21.90;96.40;;;;;;4926667;29;20198;-76
2023/07/03 17:03:47;;;;;;;2.55;1.00;;;21.90;95.90;;;;;;4923069;29;20216;-75
2023/07/03 17:06:18;;;;;;;4.57;1.30;;;21.90;95.80;;;;;;4925737;29;20230;-74
2023/07/03 17:08:45;;;;;;;3.47;1.00;;;21.80;95.60;;;;;;4924976;29;20221;-73
2023/07/03 17:11:13;;;;;;;2.67;0.98;;;21.70;95.50;;;;;;4926568;29;20593;-74
2023/07/03 17:13:40;;;;;;;3.83;1.00;;;21.60;95.50;;;;;;4924723;29;20202;-74
2023/07/03 17:16:08;;;;;;;6.15;1.60;;;21.50;96.10;;;;;;4926319;29;20205;-73
2023/07/03 17:18:36;;;;;;;4.78;1.45;;;21.50;95.60;;;;;;4927460;29;20277;-74
2023/07/03 17:21:03;;;;;;;7.78;1.40;;;21.40;95.60;;;;;;4924600;29;20261;-74
2023/07/03 17:23:30;;;;;;;2.78;0.93;;;21.40;95.90;;;;;;4926983;29;20293;-74
2023/07/03 17:25:57;;;;;;;3.40;0.95;;;21.20;95.20;;;;;;4923634;29;20233;-74
2023/07/03 17:28:25;;;;;;;5.32;1.20;;;21.20;95.10;;;;;;4925772;29;20232;-75
2023/07/03 17:30:52;;;;;;;2.22;1.00;;;21.30;95.20;;;;;;4928574;29;20268;-74
2023/07/03 17:33:19;;;;;;;3.90;0.93;;;21.30;95.30;;;;;;4926388;29;20225;-74
2023/07/03 17:35:48;;;;;;;2.58;1.48;;;21.20;94.40;;;;;;4928023;29;20217;-75
2023/07/03 17:38:16;;;;;;;4.30;1.00;;;21.00;94.70;;;;;;4924736;29;20225;-74
2023/07/03 17:40:45;;;;;;;3.70;0.98;;;20.90;95.00;;;;;;4932932;29;20208;-74
2023/07/03 17:43:12;;;;;;;3.28;1.05;;;20.90;94.80;;;;;;4928153;29;20719;-74
2023/07/03 17:45:41;;;;;;;5.53;0.90;;;20.80;95.20;;;;;;4924754;29;20287;-74
2023/07/03 17:48:08;;;;;;;2.70;0.80;;;20.90;95.10;;;;;;4928263;29;20239;-74
2023/07/03 17:50:35;;;;;;;2.35;0.98;;;20.90;95.40;;;;;;4933536;29;20200;-74
2023/07/03 17:53:02;;;;;;;2.17;1.00;;;20.90;95.30;;;;;;4927353;29;20219;-74
2023/07/03 17:55:30;;;;;;;2.95;1.00;;;20.90;95.80;;;;;;4931682;29;20220;-74
2023/07/03 17:57:57;;;;;;;6.25;1.33;;;20.80;95.60;;;;;;4933371;29;20219;-75
2023/07/03 18:00:24;;;;;;;4.30;1.05;;;20.80;95.70;;;;;;4935580;29;20211;-74
2023/07/03 18:02:52;;;;;;;2.97;1.10;;;20.90;96.00;;;;;;4935809;29;20205;-73
2023/07/03 18:05:19;;;;;;;4.68;1.00;;;21.00;95.80;;;;;;4935915;29;20694;-74
2023/07/03 18:07:46;;;;;;;5.38;1.38;;;21.10;96.10;;;;;;4935354;29;20242;-74
2023/07/03 18:10:13;;;;;;;6.43;1.38;;;21.10;95.80;;;;;;4935602;29;20215;-74
2023/07/03 18:12:40;;;;;;;5.13;1.20;;;21.10;95.90;;;;;;4934996;29;20205;-73
2023/07/03 18:15:07;;;;;;;3.03;1.17;;;21.10;96.10;;;;;;4935914;29;20217;-73
2023/07/03 18:17:34;;;;;;;3.47;1.00;;;21.10;96.10;;;;;;4929713;29;20240;-75
2023/07/03 18:20:03;;;;;;;1.55;0.90;;;21.10;96.20;;;;;;4935511;29;20236;-74
2023/07/03 18:22:31;;;;;;;1.52;0.90;;;21.10;96.60;;;;;;4935022;29;20287;-74
2023/07/03 18:25:00;;;;;;;2.13;0.70;;;20.90;95.90;;;;;;4934981;29;20213;-74
2023/07/03 18:27:27;;;;;;;5.20;1.10;;;20.70;96.70;;;;;;4934838;29;20711;-73
2023/07/03 18:29:54;;;;;;;2.13;0.95;;;20.60;96.70;;;;;;4935338;29;20236;-74
2023/07/03 18:32:21;;;;;;;2.75;1.10;;;20.50;96.60;;;;;;4934957;29;20571;-74
2023/07/03 18:34:47;;;;;;;3.15;1.00;;;20.50;96.80;;;;;;4935616;29;20205;-74
2023/07/03 18:37:16;;;;;;;3.53;1.08;;;20.40;96.90;;;;;;4935622;29;20668;-74
2023/07/03 18:39:43;;;;;;;4.03;0.85;;;20.40;96.70;;;;;;4934224;29;20712;-73
2023/07/03 18:42:10;;;;;;;2.72;0.90;;;20.30;96.80;;;;;;4934994;29;20672;-73
2023/07/03 18:44:37;;;;;;;4.03;0.98;;;20.20;96.90;;;;;;4935072;29;20212;-74
2023/07/03 18:47:06;;;;;;;2.05;0.93;;;20.10;97.00;;;;;;4934987;29;20240;-74
2023/07/03 18:49:34;;;;;;;2.28;0.73;;;20.10;97.20;;;;;;4934686;29;20311;-74
2023/07/03 18:52:01;;;;;;;4.22;1.05;;;20.00;97.10;;;;;;4935059;29;20569;-73
2023/07/03 18:54:29;;;;;;;1.40;0.70;;;19.90;97.30;;;;;;4935330;29;20215;-73
2023/07/03 18:56:56;;;;;;;5.00;0.80;;;19.70;97.20;;;;;;4935528;29;20213;-74
2023/07/03 18:59:23;;;;;;;3.53;1.35;;;19.70;97.20;;;;;;4931563;29;20596;-74
2023/07/03 19:01:50;;;;;;;2.63;0.88;;;19.60;97.50;;;;;;4933790;29;20215;-74
2023/07/03 19:04:16;;;;;;;3.42;1.00;;;19.50;97.60;;;;;;4932383;29;20669;-75
2023/07/03 19:06:44;;;;;;;4.37;0.87;;;19.40;97.90;;;;;;4925463;29;20233;-73
2023/07/03 19:09:11;;;;;;;2.00;0.90;;;19.40;98.10;;;;;;4934689;29;20252;-74
2023/07/03 19:11:42;;;;;;;3.47;0.90;;;19.40;98.10;;;;;;4935487;29;20200;-74
2023/07/03 19:14:09;;;;;;;3.70;0.90;;;19.30;98.40;;;;;;4935033;29;20542;-74
2023/07/03 19:16:36;;;;;;;5.30;0.93;;;19.30;98.30;;;;;;4935302;29;20217;-74
2023/07/03 19:19:03;;;;;;;2.90;1.10;;;19.20;98.50;;;;;;4934517;29;20225;-73
2023/07/03 19:21:30;;;;;;;2.93;1.20;;;19.20;98.60;;;;;;4935304;29;20209;-74
2023/07/03 19:23:57;;;;;;;2.77;1.20;;;19.10;98.80;;;;;;4934968;29;20260;-74
2023/07/03 19:26:24;;;;;;;1.95;0.80;;;19.10;98.90;;;;;;4934942;29;20327;-74
2023/07/03 19:28:52;;;;;;;5.37;1.23;;;19.00;99.10;;;;;;4931616;29;20239;-74
2023/07/03 19:31:19;;;;;;;3.13;1.20;;;19.00;99.30;;;;;;4930548;29;20295;-74
2023/07/03 19:33:46;;;;;;;3.27;0.77;;;19.00;99.50;;;;;;4924677;29;20576;-74
2023/07/03 19:36:14;;;;;;;5.47;1.10;;;19.00;99.40;;;;;;4929405;29;20248;-73
2023/07/03 19:38:41;;;;;;;3.47;0.83;;;18.90;99.70;;;;;;4928401;29;20224;-74
2023/07/03 19:41:09;;;;;;;3.93;0.80;;;18.80;99.80;;;;;;4927952;29;20204;-74
2023/07/03 19:43:37;;;;;;;3.90;1.00;;;18.70;99.90;;;;;;4928192;29;20205;-74
2023/07/03 19:46:06;;;;;;;4.13;1.10;;;18.70;99.90;;;;;;4934193;29;20668;-73
2023/07/03 19:48:33;;;;;;;4.07;1.10;;;18.80;99.90;;;;;;4929693;29;20640;-74
2023/07/03 19:51:02;;;;;;;4.93;1.53;;;18.80;99.90;;;;;;4933402;29;20567;-74
2023/07/03 19:53:30;;;;;;;5.67;1.13;;;18.80;99.90;;;;;;4926643;29;20205;-74
2023/07/03 19:55:56;;;;;;;5.50;1.13;;;18.70;99.90;;;;;;4936106;29;20217;-74
2023/07/03 19:58:24;;;;;;;5.93;1.03;;;18.70;99.90;;;;;;4937892;29;20236;-74
2023/07/03 20:00:53;;;;;;;4.70;0.90;;;18.60;99.90;;;;;;4934408;29;20284;-74
2023/07/03 20:03:21;;;;;;;6.43;1.30;;;18.60;99.90;;;;;;4936682;29;20216;-74
2023/07/03 20:05:48;;;;;;;2.87;0.93;;;18.50;99.90;;;;;;4932877;29;20577;-73
2023/07/03 20:08:15;;;;;;;7.30;1.03;;;18.40;99.90;;;;;;4934739;29;20670;-74
2023/07/03 20:10:42;;;;;;;2.37;0.90;;;18.30;99.90;;;;;;4931640;29;20600;-73
2023/07/03 20:13:09;;;;;;;2.47;1.10;;;18.30;99.90;;;;;;4937482;29;20620;-74
2023/07/03 20:15:41;;;;;;;4.17;1.13;;;18.30;99.90;;;;;;4931908;29;20241;-74
2023/07/03 20:18:08;;;;;;;4.07;1.00;;;18.30;99.90;;;;;;4937759;29;20237;-74
2023/07/03 20:20:37;;;;;;;3.00;1.00;;;18.30;99.90;;;;;;4931309;29;20646;-74
2023/07/03 20:23:04;;;;;;;5.53;1.17;;;18.20;99.90;;;;;;4937644;29;20208;-74
2023/07/03 20:25:31;;;;;;;3.33;0.87;;;18.20;99.90;;;;;;4929421;29;20205;-73
2023/07/03 20:27:58;;;;;;;5.10;1.20;;;18.10;99.90;;;;;;4937514;29;20242;-73
2023/07/03 20:30:25;;;;;;;3.87;1.20;;;18.00;99.90;;;;;;4931530;29;20236;-74
2023/07/03 20:32:52;;;;;;;3.83;1.00;;;18.10;99.90;;;;;;4976836;23;20322;-69
2023/07/03 20:35:19;;;;;;;4.67;1.20;;;18.00;99.90;;;;;;4943515;28;20209;-69
2023/07/03 20:37:47;;;;;;;6.13;1.03;;;17.90;99.90;;;;;;4946850;28;20220;-68
2023/07/03 20:40:14;;;;;;;6.73;1.37;;;17.90;99.90;;;;;;4946844;28;20211;-69
2023/07/03 20:42:40;;;;;;;7.87;0.90;;;17.80;99.90;;;;;;4954146;28;20205;-69
2023/07/03 20:45:08;;;;;;;2.43;0.87;;;17.80;99.90;;;;;;4943687;28;20651;-68
2023/07/03 20:47:36;;;;;;;4.43;1.30;;;17.80;99.90;;;;;;4951958;28;20591;-69
